Terminal Aerodrome Forecast
Issued by NWS

Current Version | Previous Version | Text Only | Print | Product List | Glossary Off
Versions: 1 2 3 4 5 6 7 8 9 10 11 12 13

000
FTUS41 KPBZ 211700
TAFMGW
TAF
KMGW 211735Z 2118/2218 VRB03KT P6SM BKN040
     FM212200 24005KT P6SM SCT040
     FM221500 20005KT P6SM OVC100=

USA.gov is the U.S. government's official web portal to all federal, state and local government web resources and services.